NCAR-RAP Real-Time Weather Data

Output produced by METARs form (14 October 2019  22:34 UTC)
found at http://weather.rap.ucar.edu/surface/
 
KFSD 142156Z 14011KT 10SM OVC250 16/03 A2976 RMK AO2 SLP084 T01610033 $
KFSD 142056Z 14012KT 10SM OVC250 16/03 A2978 RMK AO2 SLP091 T01610028 56044 $